LVBLE SASJ-SAAR
Flight info
| Callsign | LVBLE |
|---|---|
| Flight time | N/A |
| Altitude | 41000 |
| Route | ASODO2G ASODO UT672 ISOPO DCT REGUD |
| Aircraft | LJ35/M-SGHRWXY/SB1 |
Departure
| Time | 2026-05-06 20:46 |
|---|---|
| Airport | Gobernador Horacio Guzman International Airport (SASJ) |
Arrival
| Time | N/A |
|---|---|
| Airport | Rosario Islas Malvinas International Airport (SAAR) |
| Time | Latitude | Longitude | Altitude | Speed | Heading |
|---|---|---|---|---|---|
| 2026-05-06 20:40 | -24.38573 | -65.09560 | 2992 ft | 0 kts | 334° |
| 2026-05-06 20:40 | -24.38566 | -65.09603 | 2992 ft | 15 kts | 251° |
| 2026-05-06 20:41 | -24.38623 | -65.09716 | 2992 ft | 18 kts | 241° |
| 2026-05-06 20:41 | -24.38692 | -65.09838 | 2992 ft | 15 kts | 237° |
| 2026-05-06 20:41 | -24.38715 | -65.09876 | 2992 ft | 0 kts | 235° |
| 2026-05-06 20:41 | -24.38716 | -65.09877 | 2992 ft | 0 kts | 235° |
| 2026-05-06 20:42 | -24.38718 | -65.09881 | 2992 ft | 4 kts | 262° |
| 2026-05-06 20:43 | -24.38674 | -65.09927 | 2992 ft | 14 kts | 331° |
| 2026-05-06 20:43 | -24.38581 | -65.09985 | 2992 ft | 17 kts | 330° |
| 2026-05-06 20:43 | -24.38471 | -65.10054 | 2991 ft | 19 kts | 330° |
| 2026-05-06 20:43 | -24.38347 | -65.10131 | 2991 ft | 22 kts | 328° |
| 2026-05-06 20:44 | -24.38211 | -65.10216 | 2991 ft | 24 kts | 331° |
| 2026-05-06 20:44 | -24.38097 | -65.10289 | 2991 ft | 17 kts | 323° |
| 2026-05-06 20:44 | -24.38017 | -65.10349 | 2991 ft | 7 kts | 312° |
| 2026-05-06 20:44 | -24.38043 | -65.10424 | 2991 ft | 13 kts | 239° |
| 2026-05-06 20:45 | -24.38126 | -65.10463 | 2992 ft | 15 kts | 187° |
| 2026-05-06 20:45 | -24.38175 | -65.10470 | 2992 ft | 0 kts | 151° |
| 2026-05-06 20:46 | -24.38184 | -65.10464 | 2992 ft | 14 kts | 150° |
| 2026-05-06 20:46 | -24.38549 | -65.10234 | 2992 ft | 107 kts | 149° |
| 2026-05-06 20:46 | -24.39429 | -65.09691 | 3105 ft | 175 kts | 148° |
| 2026-05-06 20:46 | -24.40635 | -65.09016 | 3757 ft | 209 kts | 151° |
| 2026-05-06 20:47 | -24.42010 | -65.08240 | 4620 ft | 233 kts | 151° |
| 2026-05-06 20:47 | -24.43477 | -65.07391 | 5591 ft | 248 kts | 149° |
| 2026-05-06 20:47 | -24.45019 | -65.06477 | 6614 ft | 263 kts | 149° |
| 2026-05-06 20:47 | -24.46683 | -65.05454 | 7311 ft | 282 kts | 149° |
| 2026-05-06 20:48 | -24.48406 | -65.04403 | 8011 ft | 283 kts | 150° |
| 2026-05-06 20:48 | -24.50127 | -65.03366 | 8709 ft | 282 kts | 150° |
| 2026-05-06 20:48 | -24.51852 | -65.02329 | 9411 ft | 281 kts | 150° |
| 2026-05-06 20:48 | -24.53564 | -65.01300 | 10074 ft | 281 kts | 151° |
| 2026-05-06 20:49 | -24.55291 | -65.00266 | 10712 ft | 284 kts | 152° |
| 2026-05-06 20:49 | -24.57075 | -64.99202 | 11365 ft | 300 kts | 152° |
| 2026-05-06 20:49 | -24.58971 | -64.98072 | 12046 ft | 321 kts | 153° |
| 2026-05-06 20:49 | -24.60961 | -64.96766 | 12737 ft | 347 kts | 143° |
| 2026-05-06 20:50 | -24.62555 | -64.94755 | 13433 ft | 355 kts | 121° |
| 2026-05-06 20:50 | -24.63369 | -64.92263 | 14080 ft | 341 kts | 100° |
| 2026-05-06 20:50 | -24.63577 | -64.89718 | 14718 ft | 329 kts | 92° |
| 2026-05-06 20:50 | -24.63939 | -64.87288 | 15346 ft | 319 kts | 112° |
| 2026-05-06 20:51 | -24.65120 | -64.85285 | 15984 ft | 312 kts | 138° |
| 2026-05-06 20:51 | -24.66919 | -64.84035 | 16650 ft | 304 kts | 165° |
| 2026-05-06 20:51 | -24.68955 | -64.83559 | 17321 ft | 296 kts | 177° |
| 2026-05-06 20:51 | -24.70990 | -64.83225 | 18024 ft | 296 kts | 175° |
| 2026-05-06 20:52 | -24.73000 | -64.82678 | 18650 ft | 301 kts | 167° |
| 2026-05-06 20:52 | -24.74922 | -64.81730 | 19267 ft | 308 kts | 158° |
| 2026-05-06 20:52 | -24.76864 | -64.80528 | 19916 ft | 331 kts | 156° |
| 2026-05-06 20:52 | -24.78959 | -64.79305 | 20597 ft | 351 kts | 159° |
| 2026-05-06 20:53 | -24.81221 | -64.78124 | 21300 ft | 368 kts | 160° |
| 2026-05-06 20:53 | -24.83591 | -64.76877 | 22024 ft | 386 kts | 159° |
| 2026-05-06 20:53 | -24.86011 | -64.75537 | 22743 ft | 400 kts | 158° |
| 2026-05-06 20:53 | -24.88527 | -64.74134 | 23483 ft | 412 kts | 159° |
| 2026-05-06 20:54 | -24.91131 | -64.72719 | 24116 ft | 423 kts | 159° |
| 2026-05-06 20:54 | -24.93813 | -64.71273 | 24762 ft | 433 kts | 159° |
| 2026-05-06 20:54 | -24.96539 | -64.69782 | 25413 ft | 441 kts | 159° |
| 2026-05-06 20:54 | -24.99305 | -64.68257 | 26070 ft | 448 kts | 159° |
| 2026-05-06 20:55 | -25.02115 | -64.66719 | 26755 ft | 453 kts | 159° |
| 2026-05-06 20:55 | -25.04951 | -64.65174 | 27448 ft | 457 kts | 159° |
| 2026-05-06 20:55 | -25.07808 | -64.63612 | 28150 ft | 461 kts | 159° |
| 2026-05-06 20:55 | -25.10694 | -64.62027 | 28877 ft | 464 kts | 159° |
| 2026-05-06 20:56 | -25.13592 | -64.60436 | 29621 ft | 466 kts | 159° |
| 2026-05-06 20:56 | -25.16497 | -64.58845 | 30290 ft | 468 kts | 159° |
| 2026-05-06 20:56 | -25.19429 | -64.57238 | 30936 ft | 469 kts | 160° |
| 2026-05-06 20:56 | -25.22358 | -64.55650 | 31593 ft | 467 kts | 162° |
| 2026-05-06 20:57 | -25.25343 | -64.54257 | 32276 ft | 465 kts | 165° |
| 2026-05-06 20:57 | -25.28333 | -64.52897 | 32975 ft | 463 kts | 165° |
| 2026-05-06 20:57 | -25.31302 | -64.51530 | 33690 ft | 462 kts | 165° |
| 2026-05-06 20:57 | -25.34221 | -64.50167 | 34320 ft | 460 kts | 165° |
| 2026-05-06 20:58 | -25.37192 | -64.48786 | 34968 ft | 456 kts | 165° |
| 2026-05-06 20:58 | -25.40075 | -64.47457 | 35615 ft | 452 kts | 166° |
| 2026-05-06 20:58 | -25.42976 | -64.46114 | 36142 ft | 452 kts | 165° |
| 2026-05-06 20:58 | -25.45887 | -64.44765 | 36658 ft | 452 kts | 166° |
| 2026-05-06 20:59 | -25.48785 | -64.43424 | 37164 ft | 452 kts | 166° |
| 2026-05-06 20:59 | -25.51691 | -64.42076 | 37688 ft | 451 kts | 166° |
| 2026-05-06 20:59 | -25.54577 | -64.40734 | 38218 ft | 449 kts | 166° |
| 2026-05-06 20:59 | -25.57456 | -64.39396 | 38706 ft | 447 kts | 166° |
| 2026-05-06 21:00 | -25.60321 | -64.38065 | 39155 ft | 445 kts | 166° |
| 2026-05-06 21:00 | -25.63168 | -64.36742 | 39623 ft | 443 kts | 167° |
| 2026-05-06 21:00 | -25.65999 | -64.35424 | 40089 ft | 440 kts | 167° |
| 2026-05-06 21:00 | -25.68814 | -64.34114 | 40569 ft | 437 kts | 167° |
| 2026-05-06 21:01 | -25.71628 | -64.32809 | 40753 ft | 443 kts | 167° |
| 2026-05-06 21:01 | -25.77416 | -64.30119 | 40758 ft | 462 kts | 166° |
| 2026-05-06 21:02 | -25.83450 | -64.27297 | 40758 ft | 479 kts | 166° |
| 2026-05-06 21:02 | -25.89694 | -64.24384 | 40762 ft | 492 kts | 166° |
| 2026-05-06 21:03 | -25.96063 | -64.21401 | 40756 ft | 501 kts | 166° |
| 2026-05-06 21:03 | -26.02516 | -64.18380 | 40750 ft | 504 kts | 166° |
| 2026-05-06 21:04 | -26.08988 | -64.15346 | 40736 ft | 505 kts | 166° |
| 2026-05-06 21:04 | -26.15373 | -64.11929 | 40737 ft | 511 kts | 161° |
| 2026-05-06 21:05 | -26.21676 | -64.08367 | 40734 ft | 510 kts | 161° |
| 2026-05-06 21:05 | -26.28026 | -64.04801 | 40733 ft | 511 kts | 161° |
| 2026-05-06 21:06 | -26.34358 | -64.01222 | 40729 ft | 508 kts | 161° |
| 2026-05-06 21:06 | -26.40634 | -63.97683 | 40725 ft | 504 kts | 161° |
| 2026-05-06 21:07 | -26.46899 | -63.94140 | 40718 ft | 504 kts | 161° |
| 2026-05-06 21:07 | -26.53151 | -63.90602 | 40715 ft | 504 kts | 161° |
| 2026-05-06 21:08 | -26.59414 | -63.87052 | 40718 ft | 504 kts | 161° |
| 2026-05-06 21:08 | -26.65671 | -63.83501 | 40714 ft | 504 kts | 162° |
| 2026-05-06 21:09 | -26.71894 | -63.79965 | 40712 ft | 504 kts | 162° |
| 2026-05-06 21:09 | -26.78146 | -63.76390 | 40709 ft | 505 kts | 161° |
| 2026-05-06 21:10 | -26.84413 | -63.72810 | 40710 ft | 505 kts | 162° |
| 2026-05-06 21:10 | -26.90632 | -63.69248 | 40709 ft | 505 kts | 162° |
| 2026-05-06 21:11 | -26.96906 | -63.65653 | 40705 ft | 505 kts | 162° |
| 2026-05-06 21:11 | -27.02105 | -63.62670 | 40712 ft | 506 kts | 162° |
| 2026-05-06 21:12 | -27.08368 | -63.59048 | 40710 ft | 506 kts | 161° |
| 2026-05-06 21:12 | -27.14628 | -63.55428 | 40714 ft | 507 kts | 161° |
| 2026-05-06 21:13 | -27.21962 | -63.51181 | 40713 ft | 508 kts | 161° |
| 2026-05-06 21:13 | -27.27198 | -63.48144 | 40711 ft | 508 kts | 161° |
| 2026-05-06 21:14 | -27.33492 | -63.44491 | 40709 ft | 509 kts | 161° |
| 2026-05-06 21:14 | -27.39754 | -63.40850 | 40709 ft | 510 kts | 161° |
| 2026-05-06 21:15 | -27.46058 | -63.37180 | 40706 ft | 510 kts | 161° |
| 2026-05-06 21:15 | -27.52371 | -63.33500 | 40709 ft | 510 kts | 162° |
| 2026-05-06 21:16 | -27.58676 | -63.29821 | 40709 ft | 510 kts | 162° |
| 2026-05-06 21:16 | -27.64986 | -63.26133 | 40710 ft | 511 kts | 162° |
| 2026-05-06 21:17 | -27.71259 | -63.22463 | 40708 ft | 511 kts | 162° |
| 2026-05-06 21:17 | -27.77564 | -63.18769 | 40703 ft | 510 kts | 162° |
| 2026-05-06 21:18 | -27.83877 | -63.15065 | 40705 ft | 510 kts | 162° |
| 2026-05-06 21:18 | -27.90184 | -63.11360 | 40706 ft | 510 kts | 162° |
| 2026-05-06 21:19 | -27.96487 | -63.07652 | 40703 ft | 510 kts | 162° |
| 2026-05-06 21:19 | -28.02756 | -63.03960 | 40708 ft | 511 kts | 162° |
| 2026-05-06 21:20 | -28.09059 | -63.00243 | 40702 ft | 511 kts | 162° |
| 2026-05-06 21:20 | -28.15367 | -62.96518 | 40704 ft | 511 kts | 162° |
| 2026-05-06 21:21 | -28.21683 | -62.92783 | 40699 ft | 511 kts | 162° |
| 2026-05-06 21:21 | -28.27950 | -62.89072 | 40704 ft | 511 kts | 162° |
| 2026-05-06 21:22 | -28.34265 | -62.85327 | 40700 ft | 512 kts | 162° |
| 2026-05-06 21:22 | -28.40583 | -62.81575 | 40702 ft | 512 kts | 162° |
| 2026-05-06 21:23 | -28.46906 | -62.77817 | 40703 ft | 513 kts | 162° |
| 2026-05-06 21:23 | -28.53237 | -62.74047 | 40703 ft | 513 kts | 162° |
| 2026-05-06 21:24 | -28.59572 | -62.70271 | 40700 ft | 514 kts | 162° |
| 2026-05-06 21:24 | -28.65886 | -62.66501 | 40700 ft | 515 kts | 162° |
| 2026-05-06 21:25 | -28.72241 | -62.62702 | 40703 ft | 516 kts | 162° |
| 2026-05-06 21:25 | -28.78610 | -62.58889 | 40698 ft | 517 kts | 162° |
| 2026-05-06 21:26 | -28.84993 | -62.55062 | 40697 ft | 518 kts | 162° |
| 2026-05-06 21:26 | -28.91333 | -62.51220 | 40698 ft | 519 kts | 161° |
| 2026-05-06 21:27 | -28.97725 | -62.47355 | 40696 ft | 520 kts | 162° |
| 2026-05-06 21:27 | -29.04125 | -62.43474 | 40699 ft | 520 kts | 161° |
| 2026-05-06 21:28 | -29.10527 | -62.39589 | 40695 ft | 521 kts | 162° |
| 2026-05-06 21:28 | -29.16933 | -62.35695 | 40694 ft | 521 kts | 162° |
| 2026-05-06 21:29 | -29.23350 | -62.31788 | 40695 ft | 522 kts | 162° |
| 2026-05-06 21:29 | -29.29759 | -62.27882 | 40692 ft | 523 kts | 162° |
| 2026-05-06 21:30 | -29.36188 | -62.23957 | 40694 ft | 523 kts | 162° |
| 2026-05-06 21:30 | -29.42584 | -62.20047 | 40691 ft | 524 kts | 162° |
| 2026-05-06 21:31 | -29.49024 | -62.16104 | 40694 ft | 524 kts | 162° |
| 2026-05-06 21:31 | -29.55455 | -62.12161 | 40691 ft | 525 kts | 162° |
| 2026-05-06 21:32 | -29.61899 | -62.08204 | 40695 ft | 525 kts | 162° |
| 2026-05-06 21:32 | -29.71568 | -62.02256 | 40692 ft | 525 kts | 162° |
| 2026-05-06 21:33 | -29.78023 | -61.98278 | 40690 ft | 526 kts | 162° |
| 2026-05-06 21:33 | -29.84481 | -61.94293 | 40691 ft | 526 kts | 162° |
| 2026-05-06 21:34 | -29.87702 | -61.92476 | 40685 ft | 515 kts | 169° |
| 2026-05-06 21:34 | -29.91054 | -61.91165 | 40690 ft | 507 kts | 174° |
| 2026-05-06 21:34 | -29.97789 | -61.88719 | 40690 ft | 508 kts | 174° |
| 2026-05-06 21:35 | -30.04521 | -61.86247 | 40685 ft | 508 kts | 174° |
| 2026-05-06 21:35 | -30.11270 | -61.83783 | 40687 ft | 508 kts | 174° |
| 2026-05-06 21:36 | -30.18011 | -61.81306 | 40687 ft | 508 kts | 174° |
| 2026-05-06 21:36 | -30.24749 | -61.78835 | 40691 ft | 508 kts | 174° |
| 2026-05-06 21:37 | -30.31500 | -61.76350 | 40694 ft | 508 kts | 174° |
| 2026-05-06 21:37 | -30.38242 | -61.73868 | 40695 ft | 508 kts | 174° |
| 2026-05-06 21:38 | -30.44936 | -61.71399 | 40697 ft | 508 kts | 174° |
| 2026-05-06 21:38 | -30.51673 | -61.68911 | 40693 ft | 508 kts | 174° |
| 2026-05-06 21:39 | -30.58415 | -61.66416 | 40696 ft | 508 kts | 174° |
| 2026-05-06 21:39 | -30.65147 | -61.63937 | 40699 ft | 507 kts | 174° |
| 2026-05-06 21:40 | -30.71876 | -61.61450 | 40700 ft | 508 kts | 174° |
| 2026-05-06 21:40 | -30.78609 | -61.58960 | 40700 ft | 507 kts | 174° |